Time;durP1;ratioP1;P1;durP2;ratioP2;P2;SDS_P1;SDS_P2;PMS_P1;PMS_P2;Temp;Humidity;BMP_temperature;BMP_pressure;BME280_temperature;BME280_humidity;BME280_pressure;Samples;Min_cycle;Max_cycle;Signal;HPM_P1;HPM_P2
2022/06/07 00:01:04;;;;;;;4.63;2.05;;;22.40;94.20;;;;;;5018684;28;20029;-76
2022/06/07 00:03:29;;;;;;;6.90;2.25;;;22.40;94.30;;;;;;5031702;28;20033;-76
2022/06/07 00:05:55;;;;;;;4.57;1.98;;;22.40;94.30;;;;;;5023842;28;20056;-76
2022/06/07 00:08:22;;;;;;;6.47;2.40;;;22.30;94.30;;;;;;5023751;28;20037;-76
2022/06/07 00:10:48;;;;;;;7.53;2.65;;;22.30;94.30;;;;;;5036459;28;20033;-76
2022/06/07 00:13:15;;;;;;;6.72;2.17;;;22.30;94.40;;;;;;5023069;28;20045;-76
2022/06/07 00:15:43;;;;;;;6.63;2.20;;;22.30;94.50;;;;;;5021057;28;20373;-76
2022/06/07 00:18:11;;;;;;;7.57;2.85;;;22.40;94.40;;;;;;5030530;28;20029;-76
2022/06/07 00:20:38;;;;;;;7.28;2.33;;;22.30;94.50;;;;;;5034080;28;20076;-76
2022/06/07 00:23:08;;;;;;;4.47;1.90;;;22.30;94.60;;;;;;5026293;28;20034;-76
2022/06/07 00:25:33;;;;;;;5.45;2.38;;;22.30;94.80;;;;;;5029607;28;20538;-76
2022/06/07 00:27:59;;;;;;;10.15;2.38;;;22.30;94.90;;;;;;5032075;28;20045;-76
2022/06/07 00:30:26;;;;;;;8.75;2.50;;;22.20;94.90;;;;;;5028306;28;20038;-76
2022/06/07 00:32:51;;;;;;;7.65;2.20;;;22.30;94.70;;;;;;5026389;28;20033;-76
2022/06/07 00:35:18;;;;;;;4.85;1.67;;;22.20;94.80;;;;;;5029140;28;20045;-76
2022/06/07 00:37:43;;;;;;;5.70;2.45;;;22.20;94.80;;;;;;5023929;28;20041;-76
2022/06/07 00:40:10;;;;;;;8.52;2.30;;;22.20;94.80;;;;;;5020803;28;20033;-76
2022/06/07 00:42:36;;;;;;;8.98;2.50;;;22.20;94.80;;;;;;5030725;28;20068;-76
2022/06/07 00:45:02;;;;;;;8.93;2.15;;;22.20;94.90;;;;;;5021851;28;20037;-76
2022/06/07 00:47:30;;;;;;;6.97;1.85;;;22.10;95.00;;;;;;5027395;28;20373;-76
2022/06/07 00:50:08;;;;;;;6.03;1.98;;;22.10;95.10;;;;;;5024254;28;20511;-76
2022/06/07 00:52:35;;;;;;;12.30;2.45;;;22.00;95.30;;;;;;5025955;28;20037;-76
2022/06/07 00:55:02;;;;;;;4.45;2.13;;;22.10;95.20;;;;;;5024332;28;20427;-76
2022/06/07 00:57:28;;;;;;;4.47;1.80;;;22.10;95.40;;;;;;5027861;28;20025;-76
2022/06/07 00:59:54;;;;;;;7.72;2.65;;;22.10;95.40;;;;;;5021314;28;20034;-76
2022/06/07 01:02:21;;;;;;;8.55;2.50;;;22.10;95.50;;;;;;5031965;28;20048;-76
2022/06/07 01:04:46;;;;;;;7.22;2.70;;;22.10;95.40;;;;;;5020990;28;20043;-76
2022/06/07 01:12:41;;;;;;;7.85;2.50;;;22.00;95.50;;;;;;5025049;28;20392;-76
2022/06/07 01:15:08;;;;;;;4.35;1.90;;;22.10;95.20;;;;;;5026161;28;20037;-76
2022/06/07 01:17:34;;;;;;;8.68;2.47;;;22.10;95.10;;;;;;5026584;28;20514;-76
2022/06/07 01:20:00;;;;;;;4.40;2.00;;;22.10;95.30;;;;;;5026889;28;20033;-76
2022/06/07 01:22:25;;;;;;;5.13;2.67;;;22.10;95.10;;;;;;5031953;28;20034;-76
2022/06/07 01:24:53;;;;;;;6.45;2.70;;;22.10;95.10;;;;;;5024178;28;20395;-76
2022/06/07 01:27:20;;;;;;;7.45;2.33;;;22.10;95.30;;;;;;5023250;28;20060;-76
2022/06/07 01:29:45;;;;;;;5.75;2.10;;;22.10;95.60;;;;;;5026382;28;20099;-76
2022/06/07 01:32:11;;;;;;;5.78;2.20;;;22.00;95.60;;;;;;5025293;28;20037;-76
2022/06/07 01:34:42;;;;;;;5.63;2.42;;;22.00;95.90;;;;;;5025344;28;20037;-76
2022/06/07 01:37:10;;;;;;;5.63;2.53;;;22.00;96.10;;;;;;5029084;28;20026;-76
2022/06/07 01:42:21;;;;;;;5.90;2.30;;;21.80;96.20;;;;;;5028092;28;20111;-76
2022/06/07 01:44:48;;;;;;;5.55;2.20;;;21.90;96.30;;;;;;5026784;28;20095;-76
2022/06/07 01:47:17;;;;;;;4.63;2.17;;;21.70;96.70;;;;;;5029815;28;20026;-76
2022/06/07 01:49:43;;;;;;;7.07;2.00;;;21.80;96.40;;;;;;5025369;28;20396;-75
2022/06/07 01:52:10;;;;;;;5.65;2.40;;;21.80;96.20;;;;;;5034177;28;20057;-76
2022/06/07 01:54:36;;;;;;;5.05;2.40;;;21.90;96.70;;;;;;5031759;28;20025;-76
2022/06/07 01:57:05;;;;;;;7.78;3.00;;;21.70;97.40;;;;;;5019035;28;20032;-76
2022/06/07 01:59:31;;;;;;;5.32;2.63;;;21.60;97.60;;;;;;5031965;28;20025;-76
2022/06/07 02:01:56;;;;;;;5.53;2.55;;;21.50;98.10;;;;;;5027152;28;20682;-76
2022/06/07 02:04:22;;;;;;;6.85;2.40;;;21.20;98.50;;;;;;5030479;28;20095;-76
2022/06/07 02:06:49;;;;;;;8.60;2.22;;;21.20;98.10;;;;;;5027456;28;20107;-76
2022/06/07 02:09:15;;;;;;;4.60;2.58;;;21.30;98.30;;;;;;5023861;28;20116;-77
2022/06/07 02:11:41;;;;;;;4.47;2.88;;;21.30;98.70;;;;;;5029310;28;20033;-76
2022/06/07 02:14:07;;;;;;;6.85;2.40;;;21.30;99.00;;;;;;5033332;28;20538;-76
2022/06/07 02:16:33;;;;;;;7.30;2.80;;;21.30;98.80;;;;;;5028677;28;20042;-76
2022/06/07 02:18:58;;;;;;;9.00;3.03;;;21.30;98.50;;;;;;5030353;28;20038;-76
2022/06/07 02:21:25;;;;;;;6.55;2.60;;;21.20;98.30;;;;;;5021500;28;20052;-76
2022/06/07 02:23:51;;;;;;;5.70;2.28;;;21.20;98.20;;;;;;5028367;28;20042;-76
2022/06/07 02:26:36;;;;;;;6.90;3.13;;;21.10;99.00;;;;;;5031467;28;20026;-76
2022/06/07 02:29:15;;;;;;;7.25;2.90;;;21.10;99.90;;;;;;5034776;28;20036;-76
2022/06/07 02:31:44;;;;;;;7.28;2.33;;;20.90;99.90;;;;;;5029023;28;20411;-76
2022/06/07 02:34:10;;;;;;;5.82;2.92;;;21.10;99.90;;;;;;5033544;28;20113;-76
2022/06/07 02:36:37;;;;;;;6.38;2.70;;;21.10;99.90;;;;;;5027415;28;20033;-76
2022/06/07 02:39:03;;;;;;;6.63;2.80;;;20.90;99.90;;;;;;5030385;28;20426;-76
2022/06/07 02:41:32;;;;;;;9.18;2.63;;;20.90;99.90;;;;;;5030855;28;20391;-76
2022/06/07 02:43:58;;;;;;;7.00;3.08;;;20.70;99.90;;;;;;5028254;28;20416;-76
2022/06/07 02:46:24;;;;;;;8.73;3.63;;;20.60;99.90;;;;;;5025102;28;20072;-76
2022/06/07 02:48:50;;;;;;;8.30;2.75;;;20.40;99.90;;;;;;5032666;28;20140;-76
2022/06/07 02:51:15;;;;;;;5.30;2.97;;;20.20;99.90;;;;;;5029049;28;20091;-76
2022/06/07 02:53:41;;;;;;;8.27;2.85;;;20.10;99.90;;;;;;5025658;28;20068;-76
2022/06/07 02:56:07;;;;;;;8.85;3.38;;;20.10;99.90;;;;;;5025018;28;20104;-76
2022/06/07 02:58:32;;;;;;;7.78;3.25;;;20.00;99.90;;;;;;5027791;28;20461;-76
2022/06/07 03:00:58;;;;;;;7.50;2.85;;;20.10;99.90;;;;;;5024048;28;20488;-74
2022/06/07 03:03:26;;;;;;;8.23;2.47;;;19.80;99.90;;;;;;5019839;28;20132;-76
2022/06/07 03:05:51;;;;;;;7.22;3.03;;;19.70;99.90;;;;;;5024270;28;20029;-76
2022/06/07 03:08:18;;;;;;;6.25;2.17;;;19.80;99.90;;;;;;5013150;28;20037;-76
2022/06/07 03:10:45;;;;;;;4.60;2.00;;;19.70;99.90;;;;;;5014154;28;20218;-76
2022/06/07 03:13:12;;;;;;;4.13;2.00;;;19.70;99.90;;;;;;5020336;28;20609;-76
2022/06/07 03:15:39;;;;;;;6.82;2.13;;;19.60;99.90;;;;;;5027796;28;20025;-76
2022/06/07 03:18:05;;;;;;;5.47;2.42;;;19.50;99.90;;;;;;5022675;28;20030;-75
2022/06/07 03:20:31;;;;;;;4.60;2.20;;;19.30;99.90;;;;;;5017446;28;20041;-75
2022/06/07 03:22:57;;;;;;;4.88;2.25;;;18.90;99.90;;;;;;5025052;28;20629;-75
2022/06/07 03:25:24;;;;;;;4.60;1.80;;;18.70;99.90;;;;;;5024082;28;20055;-75
2022/06/07 03:27:51;;;;;;;6.80;2.35;;;18.70;99.90;;;;;;5025365;28;20033;-75
2022/06/07 03:30:17;;;;;;;5.22;2.03;;;19.00;99.90;;;;;;5019282;28;20058;-75
2022/06/07 03:32:44;;;;;;;4.75;2.33;;;18.90;99.90;;;;;;5023930;28;20048;-75
2022/06/07 03:35:10;;;;;;;3.85;2.20;;;18.70;99.90;;;;;;5026224;28;20029;-76
2022/06/07 03:37:37;;;;;;;5.03;2.05;;;18.70;99.90;;;;;;5028268;28;20045;-75
2022/06/07 03:40:07;;;;;;;4.60;2.20;;;18.70;99.90;;;;;;5018366;28;20159;-76
2022/06/07 03:42:33;;;;;;;6.88;2.45;;;18.70;99.90;;;;;;5015237;28;20637;-75
2022/06/07 03:44:59;;;;;;;6.95;2.55;;;18.70;99.90;;;;;;5023364;28;20029;-76
2022/06/07 03:47:25;;;;;;;6.65;2.30;;;18.50;99.90;;;;;;5020271;28;20040;-76
2022/06/07 03:49:51;;;;;;;4.07;1.92;;;18.20;99.90;;;;;;5023704;28;20373;-76
2022/06/07 03:52:17;;;;;;;4.47;2.65;;;18.20;99.90;;;;;;5015865;28;20039;-76
2022/06/07 03:54:44;;;;;;;6.95;2.90;;;18.20;99.90;;;;;;5017194;28;20033;-76
2022/06/07 03:57:10;;;;;;;5.50;2.58;;;18.20;99.90;;;;;;5020784;28;20144;-76
2022/06/07 03:59:37;;;;;;;6.50;2.45;;;18.40;99.90;;;;;;5018643;28;20064;-76
2022/06/07 04:02:04;;;;;;;4.60;2.38;;;18.40;99.90;;;;;;5013811;28;20018;-76
2022/06/07 04:04:30;;;;;;;6.13;2.50;;;18.40;99.90;;;;;;5017206;28;20134;-75
2022/06/07 04:09:40;;;;;;;5.07;2.10;;;18.30;99.90;;;;;;5011214;28;20044;-76
2022/06/07 04:12:11;;;;;;;5.28;2.90;;;18.40;99.90;;;;;;5010991;28;20653;-75
2022/06/07 04:14:38;;;;;;;5.93;2.67;;;18.60;99.90;;;;;;5010254;28;20030;-76
2022/06/07 04:17:04;;;;;;;9.05;2.85;;;18.60;99.90;;;;;;5016039;28;20033;-76
2022/06/07 04:19:32;;;;;;;4.07;2.40;;;18.70;99.90;;;;;;5011308;28;20040;-76
2022/06/07 04:21:58;;;;;;;5.60;2.95;;;18.60;99.90;;;;;;5014817;28;20044;-76
2022/06/07 04:24:23;;;;;;;5.97;3.05;;;18.70;99.90;;;;;;5014536;28;20033;-76
2022/06/07 04:26:49;;;;;;;5.63;2.85;;;18.70;99.90;;;;;;5025031;28;20112;-75
2022/06/07 04:29:15;;;;;;;4.60;2.78;;;18.60;99.90;;;;;;5022353;28;20053;-76
2022/06/07 04:31:40;;;;;;;7.18;3.30;;;18.40;99.90;;;;;;5011439;28;20084;-75
2022/06/07 04:34:06;;;;;;;4.55;3.15;;;18.40;99.90;;;;;;5014601;28;20477;-75
2022/06/07 04:36:32;;;;;;;6.82;3.47;;;18.40;99.90;;;;;;5010571;28;20035;-76
2022/06/07 04:39:01;;;;;;;6.13;3.58;;;18.50;99.90;;;;;;5006072;28;20036;-75
2022/06/07 04:41:27;;;;;;;5.40;3.30;;;18.40;99.90;;;;;;5014276;28;20348;-76
2022/06/07 04:43:54;;;;;;;7.22;3.92;;;18.40;99.90;;;;;;5010161;28;20064;-75
2022/06/07 04:46:21;;;;;;;9.13;4.20;;;18.50;99.90;;;;;;5007501;28;20037;-75
2022/06/07 04:48:48;;;;;;;7.95;4.13;;;18.50;99.90;;;;;;5019212;28;20411;-75
2022/06/07 04:51:17;;;;;;;6.00;3.78;;;18.50;99.90;;;;;;5019629;28;20079;-75
2022/06/07 04:53:43;;;;;;;6.95;3.20;;;18.40;99.90;;;;;;5019474;28;20033;-76
2022/06/07 04:56:17;;;;;;;6.60;3.78;;;18.40;99.90;;;;;;5018182;28;20364;-76
2022/06/07 04:58:44;;;;;;;6.55;2.90;;;18.40;99.90;;;;;;5019605;28;20041;-76
2022/06/07 05:01:15;;;;;;;6.50;3.00;;;18.60;99.90;;;;;;5008791;28;20026;-76
2022/06/07 05:03:41;;;;;;;6.57;3.05;;;18.70;99.90;;;;;;5007028;28;20034;-75
2022/06/07 05:06:21;;;;;;;7.50;3.72;;;18.60;99.90;;;;;;5006857;28;20669;-76
2022/06/07 05:08:47;;;;;;;5.63;3.10;;;18.50;99.90;;;;;;5011138;28;20033;-75
2022/06/07 05:11:14;;;;;;;8.65;3.97;;;18.30;99.90;;;;;;5011255;28;20060;-76
2022/06/07 05:13:39;;;;;;;6.05;3.40;;;18.30;99.90;;;;;;5007668;28;20033;-77
2022/06/07 05:16:06;;;;;;;6.55;3.45;;;18.30;99.90;;;;;;5008628;28;20036;-76
2022/06/07 05:18:32;;;;;;;7.38;3.88;;;18.40;99.90;;;;;;5008952;28;20033;-76
2022/06/07 05:20:58;;;;;;;5.70;3.22;;;18.30;99.90;;;;;;5008687;28;20483;-76
2022/06/07 05:23:24;;;;;;;6.32;3.78;;;18.20;99.90;;;;;;5005278;28;20025;-77
2022/06/07 05:26:15;;;;;;;7.55;3.25;;;18.20;99.90;;;;;;5010052;28;20496;-76
2022/06/07 05:28:42;;;;;;;9.38;4.55;;;18.00;99.90;;;;;;5021798;28;20034;-75
2022/06/07 05:31:08;;;;;;;6.60;4.05;;;18.00;99.90;;;;;;5019577;28;20576;-76
2022/06/07 05:33:34;;;;;;;5.40;3.47;;;18.00;99.90;;;;;;5023930;28;20117;-76
2022/06/07 05:36:00;;;;;;;4.82;3.10;;;18.10;99.90;;;;;;5020449;28;20033;-75
2022/06/07 05:38:26;;;;;;;7.25;3.80;;;18.00;99.90;;;;;;5023900;28;20088;-76
2022/06/07 05:40:53;;;;;;;5.47;3.25;;;18.20;99.90;;;;;;5017316;28;20637;-76
2022/06/07 05:43:19;;;;;;;7.15;3.92;;;18.20;99.90;;;;;;5015632;28;20029;-76
2022/06/07 05:45:52;;;;;;;6.38;3.88;;;18.00;99.90;;;;;;5016709;28;20056;-76
2022/06/07 05:48:18;;;;;;;7.40;3.70;;;18.10;99.90;;;;;;5022435;28;20037;-76
2022/06/07 05:50:44;;;;;;;6.07;4.25;;;18.00;99.90;;;;;;5018545;28;21025;-76
2022/06/07 05:53:11;;;;;;;7.28;3.88;;;18.00;99.90;;;;;;5021952;28;20084;-76
2022/06/07 05:55:37;;;;;;;5.95;4.13;;;18.00;99.90;;;;;;5018738;28;20030;-76
2022/06/07 05:58:02;;;;;;;5.95;4.78;;;18.00;99.90;;;;;;5019353;28;20111;-76
2022/06/07 06:00:30;;;;;;;7.00;5.32;;;18.00;99.90;;;;;;5021708;28;20037;-76
2022/06/07 06:02:56;;;;;;;6.53;4.60;;;17.90;99.90;;;;;;5017575;28;20025;-76
2022/06/07 06:05:22;;;;;;;8.23;5.07;;;18.00;99.90;;;;;;5022078;28;20052;-76
2022/06/07 06:10:32;;;;;;;8.10;4.43;;;17.80;99.90;;;;;;5022374;28;20388;-75
2022/06/07 06:12:58;;;;;;;5.78;4.30;;;17.60;99.90;;;;;;5021287;28;20038;-76
2022/06/07 06:15:24;;;;;;;5.97;4.75;;;17.70;99.90;;;;;;5017141;28;20042;-76
2022/06/07 06:17:49;;;;;;;10.13;5.47;;;17.60;99.90;;;;;;5026863;28;20033;-76
2022/06/07 06:20:15;;;;;;;9.07;5.57;;;17.70;99.90;;;;;;5016124;28;20048;-76
2022/06/07 06:22:41;;;;;;;6.22;5.05;;;17.60;99.90;;;;;;5019649;28;20053;-76
2022/06/07 06:25:08;;;;;;;6.68;4.07;;;17.60;99.90;;;;;;5023307;28;20041;-75
2022/06/07 06:27:33;;;;;;;8.40;4.57;;;17.80;99.90;;;;;;5012879;28;20033;-76
2022/06/07 06:29:59;;;;;;;6.45;4.07;;;17.90;99.90;;;;;;5021606;28;20576;-76
2022/06/07 06:32:25;;;;;;;7.35;5.00;;;17.90;99.90;;;;;;5024064;28;20048;-76
2022/06/07 06:34:51;;;;;;;6.40;4.18;;;18.00;99.90;;;;;;5033501;28;20065;-76
2022/06/07 06:37:18;;;;;;;8.23;4.25;;;18.00;99.90;;;;;;5017172;28;20034;-75
2022/06/07 06:39:44;;;;;;;5.28;3.97;;;18.10;99.90;;;;;;5016607;28;20073;-76
2022/06/07 06:42:10;;;;;;;5.97;3.67;;;18.10;99.90;;;;;;5025388;28;20026;-75
2022/06/07 06:44:36;;;;;;;4.88;3.60;;;18.10;99.90;;;;;;5026306;28;20648;-75
2022/06/07 06:47:02;;;;;;;5.47;3.03;;;18.00;99.90;;;;;;5023299;28;20040;-75
2022/06/07 06:49:28;;;;;;;5.47;3.38;;;18.10;99.90;;;;;;5024653;28;20060;-75
2022/06/07 06:51:55;;;;;;;7.22;3.50;;;18.20;99.90;;;;;;5020549;28;20025;-76
2022/06/07 06:54:21;;;;;;;5.57;2.95;;;18.30;99.90;;;;;;5023368;28;20649;-76
2022/06/07 06:56:47;;;;;;;6.38;2.63;;;18.20;99.90;;;;;;5019347;28;20029;-76
2022/06/07 06:59:14;;;;;;;4.50;2.80;;;18.40;99.90;;;;;;5024421;28;20037;-76
2022/06/07 07:01:41;;;;;;;3.60;2.70;;;18.40;99.90;;;;;;5024309;28;20124;-76
2022/06/07 07:04:10;;;;;;;2.88;1.80;;;18.30;99.90;;;;;;5025952;28;20044;-75
2022/06/07 07:06:36;;;;;;;4.28;2.28;;;18.00;99.90;;;;;;5023997;28;20053;-77
2022/06/07 07:09:03;;;;;;;3.25;1.45;;;18.10;99.90;;;;;;5019253;28;20365;-78
2022/06/07 07:11:32;;;;;;;3.58;1.60;;;18.20;99.90;;;;;;5023453;28;20475;-78
2022/06/07 07:13:59;;;;;;;5.55;2.03;;;18.30;99.90;;;;;;5021850;28;20084;-77
2022/06/07 07:16:29;;;;;;;4.72;2.22;;;18.30;99.90;;;;;;5017757;28;20072;-77
2022/06/07 07:18:56;;;;;;;5.85;2.25;;;18.30;99.90;;;;;;5022510;28;20484;-76
2022/06/07 07:21:26;;;;;;;5.13;1.83;;;18.20;99.90;;;;;;5023715;28;20028;-76
2022/06/07 07:23:51;;;;;;;4.70;2.15;;;18.30;99.90;;;;;;5022601;28;20048;-75
2022/06/07 07:26:21;;;;;;;4.85;2.05;;;18.50;99.90;;;;;;5025288;28;20033;-77
2022/06/07 07:28:49;;;;;;;3.88;2.00;;;18.50;99.90;;;;;;5024976;28;20456;-74
2022/06/07 07:31:18;;;;;;;6.32;1.70;;;18.40;99.90;;;;;;5025141;28;20163;-75
2022/06/07 07:33:44;;;;;;;2.58;1.10;;;18.30;99.90;;;;;;5024560;28;20040;-76
2022/06/07 07:36:10;;;;;;;2.72;1.25;;;18.40;99.90;;;;;;5024829;28;20037;-75
2022/06/07 07:38:36;;;;;;;3.63;2.38;;;18.40;99.90;;;;;;5021863;28;20143;-75
2022/06/07 07:41:03;;;;;;;3.55;1.73;;;18.60;99.90;;;;;;5024733;28;20037;-74
2022/06/07 07:43:29;;;;;;;3.70;1.27;;;18.60;99.90;;;;;;5023587;28;20096;-78
2022/06/07 07:45:56;;;;;;;2.03;1.00;;;18.50;99.90;;;;;;5018727;28;20042;-77
2022/06/07 07:48:23;;;;;;;4.00;1.52;;;18.70;99.90;;;;;;5025531;28;20048;-75
2022/06/07 07:50:50;;;;;;;1.60;0.90;;;19.00;99.90;;;;;;5026229;28;20037;-77
2022/06/07 07:53:18;;;;;;;1.55;0.70;;;19.00;99.90;;;;;;5024827;28;20029;-78
2022/06/07 07:55:49;;;;;;;3.25;0.95;;;18.80;99.90;;;;;;5021281;28;20026;-76
2022/06/07 07:58:16;;;;;;;1.48;0.82;;;19.00;99.90;;;;;;5020902;28;20057;-76
2022/06/07 08:00:44;;;;;;;1.73;0.80;;;19.10;99.90;;;;;;5022304;28;20102;-76
2022/06/07 08:03:09;;;;;;;1.95;0.70;;;18.80;99.90;;;;;;5017543;28;20572;-75
2022/06/07 08:05:35;;;;;;;1.60;0.82;;;18.90;99.90;;;;;;5025484;28;20037;-76
2022/06/07 08:08:01;;;;;;;2.17;0.63;;;19.00;99.90;;;;;;5019051;28;20030;-75
2022/06/07 08:10:29;;;;;;;1.92;0.80;;;19.00;99.90;;;;;;5020470;28;20101;-78
2022/06/07 08:12:55;;;;;;;1.30;0.80;;;19.30;99.90;;;;;;5023969;28;20029;-79
2022/06/07 08:15:23;;;;;;;1.75;0.80;;;19.50;99.90;;;;;;5020180;28;20021;-79
2022/06/07 08:17:49;;;;;;;1.65;0.80;;;19.70;99.90;;;;;;5017622;28;20033;-76
2022/06/07 08:20:15;;;;;;;1.67;0.70;;;20.30;99.90;;;;;;5020421;28;20034;-76
2022/06/07 08:22:41;;;;;;;2.58;1.10;;;20.60;99.90;;;;;;5021904;28;20475;-77
2022/06/07 08:25:10;;;;;;;1.05;0.75;;;21.00;99.90;;;;;;5024209;28;20080;-78
2022/06/07 08:27:36;;;;;;;1.45;0.70;;;21.00;99.90;;;;;;5023994;28;20494;-76
2022/06/07 08:30:04;;;;;;;1.30;0.70;;;20.50;99.90;;;;;;5025746;28;20152;-77
2022/06/07 08:32:30;;;;;;;1.52;0.52;;;20.80;99.90;;;;;;5024189;28;20033;-76
2022/06/07 08:37:41;;;;;;;1.48;0.90;;;21.40;99.90;;;;;;5009239;28;20068;-79
2022/06/07 08:40:17;;;;;;;2.92;0.80;;;21.90;99.90;;;;;;5021613;28;20079;-79
2022/06/07 08:42:52;;;;;;;1.77;0.80;;;21.60;99.90;;;;;;5020391;28;20063;-79
2022/06/07 08:45:32;;;;;;;1.23;0.55;;;21.20;99.90;;;;;;5021912;28;20815;-79
2022/06/07 08:48:05;;;;;;;2.67;1.00;;;21.40;99.90;;;;;;5021599;28;20113;-78
2022/06/07 08:50:46;;;;;;;0.93;0.60;;;21.50;99.90;;;;;;5020891;28;20092;-88
2022/06/07 08:53:25;;;;;;;1.15;0.40;;;21.50;99.90;;;;;;5023248;28;20052;-82
2022/06/07 08:55:57;;;;;;;0.55;0.30;;;21.20;99.90;;;;;;4998170;28;20092;-81
2022/06/07 08:58:28;;;;;;;0.77;0.43;;;21.00;99.90;;;;;;5019849;28;20038;-82
2022/06/07 09:01:03;;;;;;;0.60;0.30;;;20.80;99.90;;;;;;5018379;28;20065;-83
2022/06/07 09:03:48;;;;;;;1.20;0.40;;;21.10;99.90;;;;;;5023872;28;20045;-83
2022/06/07 09:06:25;;;;;;;0.80;0.38;;;21.00;99.90;;;;;;5025090;28;20480;-83
2022/06/07 09:08:53;;;;;;;0.93;0.35;;;21.00;99.90;;;;;;5018645;28;20033;-82
2022/06/07 09:14:54;;;;;;;0.80;0.20;;;21.40;99.90;;;;;;5019431;28;20091;-76
2022/06/07 09:17:29;;;;;;;0.70;0.50;;;21.50;99.90;;;;;;5010975;28;20030;-77
2022/06/07 09:19:56;;;;;;;0.82;0.52;;;21.40;99.90;;;;;;5018297;28;20033;-76
2022/06/07 09:22:40;;;;;;;0.63;0.28;;;21.40;99.90;;;;;;5019255;28;20561;-76
2022/06/07 09:25:28;;;;;;;0.82;0.40;;;21.40;99.90;;;;;;5022562;28;20077;-76
2022/06/07 09:27:56;;;;;;;2.17;0.63;;;22.20;99.90;;;;;;5018522;28;20029;-76
2022/06/07 09:30:48;;;;;;;2.58;0.60;;;22.40;99.90;;;;;;5019522;28;20049;-75
2022/06/07 09:33:26;;;;;;;3.33;0.70;;;22.30;99.90;;;;;;5018812;28;20235;-76
2022/06/07 09:36:00;;;;;;;0.98;0.40;;;21.80;99.90;;;;;;5026101;28;20539;-77
2022/06/07 09:38:38;;;;;;;1.30;0.50;;;21.70;99.90;;;;;;5017612;28;20034;-76
2022/06/07 09:41:36;;;;;;;1.48;0.45;;;21.70;99.90;;;;;;5018707;28;20664;-75
2022/06/07 09:44:26;;;;;;;0.85;0.32;;;21.50;99.90;;;;;;5018399;28;20041;-76
2022/06/07 09:47:04;;;;;;;1.25;0.63;;;21.50;99.90;;;;;;5023167;28;20139;-76
2022/06/07 09:49:38;;;;;;;2.05;0.50;;;21.80;99.90;;;;;;5019790;28;20041;-76
2022/06/07 09:52:23;;;;;;;1.40;0.63;;;22.20;99.90;;;;;;5020404;28;20030;-76
2022/06/07 09:54:55;;;;;;;2.55;0.85;;;22.30;99.90;;;;;;5020117;28;20162;-76
2022/06/07 09:58:02;;;;;;;2.00;0.73;;;22.80;99.90;;;;;;5022993;28;20026;-76
2022/06/07 10:00:42;;;;;;;2.03;0.70;;;22.90;99.90;;;;;;4986591;28;20107;-76
2022/06/07 10:03:24;;;;;;;1.58;0.80;;;22.80;99.90;;;;;;5019813;28;20083;-76
2022/06/07 10:05:57;;;;;;;0.75;0.45;;;23.10;99.90;;;;;;5023284;28;20045;-78
2022/06/07 10:08:49;;;;;;;2.75;0.50;;;23.50;99.90;;;;;;5017008;28;20047;-76
2022/06/07 10:11:36;;;;;;;1.88;0.60;;;23.20;99.90;;;;;;5017357;28;20030;-76
2022/06/07 10:14:16;;;;;;;1.73;0.77;;;23.00;99.90;;;;;;5023969;28;20732;-77
2022/06/07 10:17:13;;;;;;;0.60;0.30;;;23.60;99.90;;;;;;5023405;28;20140;-76
2022/06/07 10:20:09;;;;;;;0.75;0.30;;;23.70;99.90;;;;;;5012952;28;20034;-76
2022/06/07 10:23:07;;;;;;;2.63;0.47;;;23.60;99.90;;;;;;5024209;28;20051;-77
2022/06/07 10:25:58;;;;;;;0.70;0.40;;;24.00;99.50;;;;;;5023642;28;20065;-76
2022/06/07 10:28:27;;;;;;;2.40;0.80;;;24.00;97.80;;;;;;5027186;28;20037;-76
2022/06/07 10:31:17;;;;;;;1.40;0.70;;;24.40;97.70;;;;;;5018428;28;20871;-76
2022/06/07 10:33:54;;;;;;;3.65;0.77;;;24.60;97.70;;;;;;5022576;28;20037;-76
2022/06/07 10:36:54;;;;;;;2.20;0.52;;;24.70;98.70;;;;;;5019260;28;20029;-76
2022/06/07 10:40:00;;;;;;;1.63;0.50;;;24.70;98.60;;;;;;5014302;28;20037;-76
2022/06/07 10:42:48;;;;;;;7.63;0.73;;;24.10;99.10;;;;;;5024940;28;20037;-76
2022/06/07 10:45:24;;;;;;;1.50;0.52;;;23.90;99.90;;;;;;5025855;28;20084;-76
2022/06/07 10:47:59;;;;;;;2.05;0.57;;;23.80;99.40;;;;;;5028090;28;20040;-76
2022/06/07 10:50:52;;;;;;;2.28;1.10;;;23.80;99.80;;;;;;5024289;28;20033;-75
2022/06/07 10:53:33;;;;;;;2.42;0.63;;;23.90;99.60;;;;;;5026958;28;20112;-76
2022/06/07 10:56:18;;;;;;;1.48;0.50;;;24.10;99.60;;;;;;5020214;28;20045;-76
2022/06/07 10:58:47;;;;;;;0.88;0.40;;;24.10;99.90;;;;;;5023437;28;20077;-76
2022/06/07 11:01:14;;;;;;;2.33;0.60;;;24.00;99.90;;;;;;5024396;28;20124;-76
2022/06/07 11:09:58;;;;;;;1.00;0.52;;;24.40;98.70;;;;;;5027995;28;20155;-76
2022/06/07 11:12:34;;;;;;;1.67;0.70;;;24.10;98.80;;;;;;5027923;28;20112;-76
2022/06/07 11:15:20;;;;;;;1.95;0.30;;;23.70;99.50;;;;;;5025415;28;20458;-77
2022/06/07 11:18:00;;;;;;;2.15;0.70;;;23.40;99.40;;;;;;5030349;28;20083;-76
2022/06/07 11:20:34;;;;;;;1.67;0.40;;;23.30;99.90;;;;;;5028717;28;20033;-77
2022/06/07 11:23:25;;;;;;;1.17;0.40;;;23.00;99.90;;;;;;5024037;28;20705;-76
2022/06/07 11:26:07;;;;;;;1.92;0.75;;;22.70;99.90;;;;;;5015879;28;20069;-77
2022/06/07 11:28:38;;;;;;;2.08;0.60;;;22.70;99.40;;;;;;5023747;28;20033;-76
2022/06/07 11:31:23;;;;;;;3.85;0.52;;;22.70;99.90;;;;;;5028305;28;20050;-75
2022/06/07 11:33:51;;;;;;;1.08;0.40;;;22.60;99.90;;;;;;5025534;28;20079;-77
2022/06/07 11:36:20;;;;;;;3.67;0.43;;;22.20;99.90;;;;;;5028042;28;20071;-76
2022/06/07 11:38:55;;;;;;;2.05;0.50;;;22.30;99.90;;;;;;5027725;28;20033;-78
2022/06/07 11:41:47;;;;;;;2.42;0.50;;;22.00;99.90;;;;;;5022575;28;20022;-77
2022/06/07 11:44:19;;;;;;;1.35;0.50;;;21.80;99.90;;;;;;5017266;28;20040;-75
2022/06/07 11:46:59;;;;;;;1.55;0.30;;;21.80;99.90;;;;;;5027893;28;20029;-76
2022/06/07 11:49:26;;;;;;;1.77;0.75;;;21.90;99.90;;;;;;5028770;28;20037;-77
2022/06/07 11:51:58;;;;;;;1.13;0.50;;;22.00;99.90;;;;;;5023227;28;20511;-76
2022/06/07 11:54:36;;;;;;;2.47;0.50;;;22.00;99.90;;;;;;5019208;28;20635;-76
2022/06/07 11:57:30;;;;;;;1.50;0.55;;;21.80;99.90;;;;;;5019459;28;20116;-78
2022/06/07 11:59:59;;;;;;;2.08;0.60;;;21.80;99.90;;;;;;5013812;28;20396;-77
2022/06/07 12:02:32;;;;;;;1.15;0.50;;;21.80;99.90;;;;;;5018100;28;20037;-76
2022/06/07 12:05:17;;;;;;;1.95;0.80;;;21.80;99.90;;;;;;5024245;28;20052;-77
2022/06/07 12:07:49;;;;;;;1.33;0.50;;;21.90;99.90;;;;;;5022018;28;20029;-76
2022/06/07 12:10:17;;;;;;;1.48;0.52;;;22.00;99.90;;;;;;5028742;28;20065;-76
2022/06/07 12:13:02;;;;;;;2.03;0.70;;;21.80;99.90;;;;;;5026928;28;20119;-77
2022/06/07 12:15:49;;;;;;;5.90;0.50;;;21.80;99.90;;;;;;5025900;28;20658;-77
2022/06/07 12:18:26;;;;;;;1.25;0.60;;;21.70;99.90;;;;;;5023696;28;20068;-76
2022/06/07 12:20:54;;;;;;;1.38;0.68;;;22.00;99.90;;;;;;5032638;28;20415;-77
2022/06/07 12:23:22;;;;;;;1.45;0.50;;;21.90;99.90;;;;;;5028242;28;20044;-76
2022/06/07 12:26:16;;;;;;;1.52;0.70;;;21.80;99.90;;;;;;5025022;28;20048;-76
2022/06/07 12:28:49;;;;;;;;;;;21.60;99.90;;;;;;5004093;28;20133;-76
2022/06/07 12:31:23;;;;;;;2.00;1.00;;;21.60;99.90;;;;;;5032698;28;19916;-76
2022/06/07 12:33:51;;;;;;;5.47;2.33;;;21.90;99.90;;;;;;5022251;28;20498;-76
2022/06/07 12:36:31;;;;;;;1.27;0.70;;;21.80;99.90;;;;;;5020885;28;20045;-77
2022/06/07 12:39:03;;;;;;;4.68;2.22;;;21.70;99.90;;;;;;5027550;28;20033;-76
2022/06/07 12:41:33;;;;;;;3.88;0.70;;;21.30;99.90;;;;;;5019386;28;20041;-77
2022/06/07 12:44:01;;;;;;;1.42;0.88;;;21.50;99.90;;;;;;5026140;28;20021;-77
2022/06/07 12:46:30;;;;;;;3.15;0.90;;;21.20;99.90;;;;;;5022730;28;20045;-77
2022/06/07 12:48:58;;;;;;;6.00;3.25;;;21.00;99.90;;;;;;5027984;28;20037;-77
2022/06/07 12:51:35;;;;;;;2.30;0.98;;;21.30;99.90;;;;;;5015352;28;20172;-76
2022/06/07 12:54:18;;;;;;;2.25;1.20;;;21.00;99.90;;;;;;5022626;28;20022;-77
2022/06/07 12:56:46;;;;;;;0.52;0.30;;;20.80;99.90;;;;;;5023535;28;20113;-77
2022/06/07 12:59:30;;;;;;;1.20;0.30;;;20.70;99.90;;;;;;5022092;28;20480;-76
2022/06/07 13:01:57;;;;;;;7.63;0.40;;;20.70;99.90;;;;;;5029482;28;20029;-76
2022/06/07 13:04:45;;;;;;;0.98;0.20;;;20.60;99.90;;;;;;5019350;28;20111;-76
2022/06/07 13:07:22;;;;;;;0.15;0.00;;;20.40;99.90;;;;;;5021673;28;20384;-76
2022/06/07 13:09:53;;;;;;;2.95;0.20;;;20.30;99.00;;;;;;5025811;28;20506;-76
2022/06/07 13:12:31;;;;;;;2.35;0.55;;;20.30;99.10;;;;;;5024175;28;20025;-77
2022/06/07 13:14:59;;;;;;;2.15;0.40;;;20.30;98.70;;;;;;5027023;28;20490;-77
2022/06/07 13:17:33;;;;;;;0.50;0.10;;;20.30;97.90;;;;;;5022456;28;20047;-77
2022/06/07 13:20:00;;;;;;;0.00;0.00;;;20.30;96.30;;;;;;5025921;28;20084;-77
2022/06/07 13:22:29;;;;;;;0.20;0.10;;;20.30;98.40;;;;;;5026330;28;20029;-76
2022/06/07 13:25:16;;;;;;;0.00;0.00;;;20.30;96.60;;;;;;5019759;28;20083;-77
2022/06/07 13:27:58;;;;;;;1.08;0.20;;;20.50;97.30;;;;;;5019926;28;20021;-77
2022/06/07 13:30:33;;;;;;;0.13;0.03;;;20.60;96.80;;;;;;5022630;28;20054;-77
2022/06/07 13:33:23;;;;;;;2.40;0.40;;;20.60;96.70;;;;;;5026096;28;20562;-76